Meath Environmental Platform

Observations for Trim Patrick St

Time AQI Temp °C Hum % Pres Pa CO μg/m³ H₂S μg/m³ NO μg/m³ NO₂ μg/m³ O₃ μg/m³ SO₂ μg/m³ PM1 μg/m³ PM2.5 μg/m³ PM10 μg/m³
Thursday 27 August 2026
05:10 2 16.6 87 38,223 0.24 2.33 1.69 23.98 40.06 0 22.57 30.78 31.06
05:09 2 16.5 89 38,230 0.25 1.5 2.02 20.32 28.6 0 23.43 30.57 31.22
05:06 2 16.5 88 38,267 0.25 1.55 1.63 25.25 40.05 0 25.14 32.75 34.07
05:05 2 16.5 88 38,288 0.24 0.85 1.57 17.3 29.93 0 23.43 29.93 30.06
05:04 2 16.5 88 38,288 0.25 1.42 1.42 20.62 35.19 0 23.43 29.93 30.06
05:03 2 16.5 89 38,288 0.24 0.04 1.59 17.96 32.66 0 23.43 30.57 31.85
05:02 2 16.5 88 38,288 0.23 0.25 1.41 17.04 27.92 0 21.72 29.24 32.16
05:00 2 16.4 88 38,288 0.23 1.03 1.62 22.03 37.58 0 23.43 30.73 33.81
04:57 2 16.4 88 38,288 0.24 0.79 1.5 17.69 31.93 0 22.57 29.31 32.24
04:56 2 16.4 86 38,288 0.24 0.66 1.6 23.43 44.08 0 24.29 31.71 32.93
04:55 2 16.4 88 38,288 0.23 1.42 1.37 20.32 40.7 0 21.72 29.36 30.32
04:54 2 16.4 88 38,288 0.23 1.53 1.7 22.13 37.71 0 22.57 29.28 32.02
04:53 2 16.4 88 38,288 0.24 2.52 1.9 21.13 33.12 0 22.57 29.9 32.9
04:52 2 16.4 89 38,288 0.23 2.65 1.98 30.71 45.37 0 24.29 31.24 34.36
04:51 2 16.4 89 38,288 0.24 1.08 1.98 15.06 35.43 0 21.72 28.48 31.33
04:50 2 16.3 89 38,288 0.24 0.14 1.81 22.11 29.79 0 21.72 29.21 29.96
04:49 2 16.3 89 38,288 0.25 0 1.43 13.95 33.3 0 21.72 27.82 30.6
04:47 2 16.3 89 38,288 0.23 0 1.54 12.43 36.28 0 22.57 27.83 30.61
04:46 2 16.3 89 38,288 0.24 0.69 1.52 19.3 33.82 0 23.43 30.57 33.63
04:45 2 16.3 89 38,288 0.24 0.9 1.6 19.66 34.27 0 20.86 27.83 30.61